sensor_id;sensor_type;location;lat;lon;timestamp;temperature;humidity
51996;DHT22;38010;53.264;6.592;2023-06-26T00:00:40;25.00;94.10
51996;DHT22;38010;53.264;6.592;2023-06-26T00:03:06;25.00;94.10
51996;DHT22;38010;53.264;6.592;2023-06-26T00:05:32;25.00;94.10
51996;DHT22;38010;53.264;6.592;2023-06-26T00:07:58;25.00;94.10
51996;DHT22;38010;53.264;6.592;2023-06-26T00:10:27;25.00;94.10
51996;DHT22;38010;53.264;6.592;2023-06-26T00:12:53;25.00;94.10
51996;DHT22;38010;53.264;6.592;2023-06-26T00:15:19;25.00;94.20
51996;DHT22;38010;53.264;6.592;2023-06-26T00:17:45;25.00;94.20
51996;DHT22;38010;53.264;6.592;2023-06-26T00:20:11;25.00;94.20
51996;DHT22;38010;53.264;6.592;2023-06-26T00:22:38;24.90;94.20
51996;DHT22;38010;53.264;6.592;2023-06-26T00:25:06;25.00;94.30
51996;DHT22;38010;53.264;6.592;2023-06-26T00:27:32;24.90;94.20
51996;DHT22;38010;53.264;6.592;2023-06-26T00:29:58;25.00;94.20
51996;DHT22;38010;53.264;6.592;2023-06-26T00:32:24;24.90;94.20
51996;DHT22;38010;53.264;6.592;2023-06-26T00:34:50;24.90;94.30
51996;DHT22;38010;53.264;6.592;2023-06-26T00:37:15;24.90;94.30
51996;DHT22;38010;53.264;6.592;2023-06-26T00:39:41;25.00;94.30
51996;DHT22;38010;53.264;6.592;2023-06-26T00:42:07;25.00;94.30
51996;DHT22;38010;53.264;6.592;2023-06-26T00:44:33;24.90;94.30
51996;DHT22;38010;53.264;6.592;2023-06-26T00:46:59;25.00;94.30
51996;DHT22;38010;53.264;6.592;2023-06-26T00:49:26;25.00;94.30
51996;DHT22;38010;53.264;6.592;2023-06-26T00:51:53;25.00;94.30
51996;DHT22;38010;53.264;6.592;2023-06-26T00:54:19;24.90;94.30
51996;DHT22;38010;53.264;6.592;2023-06-26T00:56:48;24.90;94.30
51996;DHT22;38010;53.264;6.592;2023-06-26T00:59:14;24.90;94.30
51996;DHT22;38010;53.264;6.592;2023-06-26T01:01:40;24.90;94.30
51996;DHT22;38010;53.264;6.592;2023-06-26T01:04:06;25.00;94.40
51996;DHT22;38010;53.264;6.592;2023-06-26T01:06:33;24.90;94.40
51996;DHT22;38010;53.264;6.592;2023-06-26T01:09:02;24.90;94.40
51996;DHT22;38010;53.264;6.592;2023-06-26T01:11:28;24.90;94.40
51996;DHT22;38010;53.264;6.592;2023-06-26T01:13:54;24.90;94.40
51996;DHT22;38010;53.264;6.592;2023-06-26T01:16:23;24.90;94.40
51996;DHT22;38010;53.264;6.592;2023-06-26T01:18:49;24.90;94.40
51996;DHT22;38010;53.264;6.592;2023-06-26T01:21:15;24.90;94.40
51996;DHT22;38010;53.264;6.592;2023-06-26T01:26:35;24.90;94.40
51996;DHT22;38010;53.264;6.592;2023-06-26T01:29:03;24.90;94.40
51996;DHT22;38010;53.264;6.592;2023-06-26T01:31:31;24.90;94.40
51996;DHT22;38010;53.264;6.592;2023-06-26T01:33:58;24.90;94.40
51996;DHT22;38010;53.264;6.592;2023-06-26T01:36:25;24.90;94.40
51996;DHT22;38010;53.264;6.592;2023-06-26T01:38:51;24.90;94.40
51996;DHT22;38010;53.264;6.592;2023-06-26T01:41:18;24.90;94.40
51996;DHT22;38010;53.264;6.592;2023-06-26T01:44:32;24.90;94.50
51996;DHT22;38010;53.264;6.592;2023-06-26T01:47:03;24.90;94.50
51996;DHT22;38010;53.264;6.592;2023-06-26T01:52:07;24.90;94.50
51996;DHT22;38010;53.264;6.592;2023-06-26T01:54:39;24.90;94.50
51996;DHT22;38010;53.264;6.592;2023-06-26T01:57:06;24.90;94.50
51996;DHT22;38010;53.264;6.592;2023-06-26T01:59:33;24.90;94.50
51996;DHT22;38010;53.264;6.592;2023-06-26T02:02:01;24.90;94.50
51996;DHT22;38010;53.264;6.592;2023-06-26T02:04:26;24.90;94.50
51996;DHT22;38010;53.264;6.592;2023-06-26T02:06:52;24.90;94.50
51996;DHT22;38010;53.264;6.592;2023-06-26T02:09:18;24.90;94.50
51996;DHT22;38010;53.264;6.592;2023-06-26T02:11:44;24.90;94.50
51996;DHT22;38010;53.264;6.592;2023-06-26T02:14:10;24.90;94.50
51996;DHT22;38010;53.264;6.592;2023-06-26T02:16:36;24.90;94.50
51996;DHT22;38010;53.264;6.592;2023-06-26T02:19:02;24.90;94.50
51996;DHT22;38010;53.264;6.592;2023-06-26T02:21:27;24.90;94.60
51996;DHT22;38010;53.264;6.592;2023-06-26T02:23:53;24.90;94.60
51996;DHT22;38010;53.264;6.592;2023-06-26T02:26:19;24.90;94.50
51996;DHT22;38010;53.264;6.592;2023-06-26T02:28:44;24.90;94.60
51996;DHT22;38010;53.264;6.592;2023-06-26T02:31:10;24.90;94.60
51996;DHT22;38010;53.264;6.592;2023-06-26T02:33:36;24.80;94.50
51996;DHT22;38010;53.264;6.592;2023-06-26T02:36:01;24.80;94.60
51996;DHT22;38010;53.264;6.592;2023-06-26T02:38:27;24.80;94.60
51996;DHT22;38010;53.264;6.592;2023-06-26T02:40:53;24.90;94.60
51996;DHT22;38010;53.264;6.592;2023-06-26T02:43:18;24.90;94.60
51996;DHT22;38010;53.264;6.592;2023-06-26T02:45:44;24.80;94.60
51996;DHT22;38010;53.264;6.592;2023-06-26T02:48:10;24.80;94.60
51996;DHT22;38010;53.264;6.592;2023-06-26T02:50:35;24.80;94.60
51996;DHT22;38010;53.264;6.592;2023-06-26T02:53:01;24.80;94.60
51996;DHT22;38010;53.264;6.592;2023-06-26T02:55:27;24.80;94.60
51996;DHT22;38010;53.264;6.592;2023-06-26T02:57:52;24.80;94.60
51996;DHT22;38010;53.264;6.592;2023-06-26T03:00:18;24.80;94.60
51996;DHT22;38010;53.264;6.592;2023-06-26T03:02:44;24.80;94.60
51996;DHT22;38010;53.264;6.592;2023-06-26T03:05:10;24.90;94.60
51996;DHT22;38010;53.264;6.592;2023-06-26T03:07:35;24.80;94.60
51996;DHT22;38010;53.264;6.592;2023-06-26T03:10:01;24.80;94.60
51996;DHT22;38010;53.264;6.592;2023-06-26T03:12:27;24.80;94.60
51996;DHT22;38010;53.264;6.592;2023-06-26T03:14:52;24.80;94.60
51996;DHT22;38010;53.264;6.592;2023-06-26T03:17:18;24.80;94.60
51996;DHT22;38010;53.264;6.592;2023-06-26T03:19:43;24.80;94.60
51996;DHT22;38010;53.264;6.592;2023-06-26T03:22:10;24.80;94.60
51996;DHT22;38010;53.264;6.592;2023-06-26T03:24:36;24.80;94.60
51996;DHT22;38010;53.264;6.592;2023-06-26T03:27:01;24.80;94.60
51996;DHT22;38010;53.264;6.592;2023-06-26T03:29:27;24.80;94.60
51996;DHT22;38010;53.264;6.592;2023-06-26T03:35:43;24.80;94.60
51996;DHT22;38010;53.264;6.592;2023-06-26T03:38:12;24.80;94.60
51996;DHT22;38010;53.264;6.592;2023-06-26T03:40:37;24.80;94.60
51996;DHT22;38010;53.264;6.592;2023-06-26T03:43:03;24.80;94.60
51996;DHT22;38010;53.264;6.592;2023-06-26T03:45:29;24.80;94.60
51996;DHT22;38010;53.264;6.592;2023-06-26T03:47:54;24.80;94.60
51996;DHT22;38010;53.264;6.592;2023-06-26T03:50:20;24.80;94.60
51996;DHT22;38010;53.264;6.592;2023-06-26T03:52:46;24.80;94.60
51996;DHT22;38010;53.264;6.592;2023-06-26T03:55:12;24.80;94.60
51996;DHT22;38010;53.264;6.592;2023-06-26T03:57:37;24.80;94.60
51996;DHT22;38010;53.264;6.592;2023-06-26T04:00:04;24.80;94.60
51996;DHT22;38010;53.264;6.592;2023-06-26T04:02:34;24.80;94.60
51996;DHT22;38010;53.264;6.592;2023-06-26T04:05:00;24.80;94.60
51996;DHT22;38010;53.264;6.592;2023-06-26T04:07:26;24.80;94.60
51996;DHT22;38010;53.264;6.592;2023-06-26T04:09:52;24.80;94.80
51996;DHT22;38010;53.264;6.592;2023-06-26T04:12:17;24.80;94.60
51996;DHT22;38010;53.264;6.592;2023-06-26T04:14:43;24.80;94.60
51996;DHT22;38010;53.264;6.592;2023-06-26T04:17:10;24.80;94.60
51996;DHT22;38010;53.264;6.592;2023-06-26T04:19:35;24.80;94.60
51996;DHT22;38010;53.264;6.592;2023-06-26T04:22:02;24.80;94.60
51996;DHT22;38010;53.264;6.592;2023-06-26T04:24:28;24.80;94.60
51996;DHT22;38010;53.264;6.592;2023-06-26T04:26:54;24.80;94.60
51996;DHT22;38010;53.264;6.592;2023-06-26T04:29:23;24.80;94.60
51996;DHT22;38010;53.264;6.592;2023-06-26T04:31:51;24.80;94.60
51996;DHT22;38010;53.264;6.592;2023-06-26T04:34:17;24.80;94.60
51996;DHT22;38010;53.264;6.592;2023-06-26T04:36:43;24.80;94.60
51996;DHT22;38010;53.264;6.592;2023-06-26T04:39:14;24.80;94.60
51996;DHT22;38010;53.264;6.592;2023-06-26T04:41:40;24.80;94.60
51996;DHT22;38010;53.264;6.592;2023-06-26T04:44:06;24.80;94.60
51996;DHT22;38010;53.264;6.592;2023-06-26T04:46:32;24.80;94.70
51996;DHT22;38010;53.264;6.592;2023-06-26T04:48:58;24.80;94.60
51996;DHT22;38010;53.264;6.592;2023-06-26T04:51:25;24.80;94.70
51996;DHT22;38010;53.264;6.592;2023-06-26T04:53:52;24.80;94.70
51996;DHT22;38010;53.264;6.592;2023-06-26T04:56:18;24.80;94.70
51996;DHT22;38010;53.264;6.592;2023-06-26T04:58:44;24.80;94.70
51996;DHT22;38010;53.264;6.592;2023-06-26T05:01:09;24.80;94.70
51996;DHT22;38010;53.264;6.592;2023-06-26T05:03:35;24.80;94.70
51996;DHT22;38010;53.264;6.592;2023-06-26T05:06:02;24.80;94.70
51996;DHT22;38010;53.264;6.592;2023-06-26T05:08:28;24.80;94.70
51996;DHT22;38010;53.264;6.592;2023-06-26T05:10:53;24.80;94.80
51996;DHT22;38010;53.264;6.592;2023-06-26T05:13:23;24.80;94.80
51996;DHT22;38010;53.264;6.592;2023-06-26T05:15:49;24.80;94.80
51996;DHT22;38010;53.264;6.592;2023-06-26T05:18:15;24.80;95.10
51996;DHT22;38010;53.264;6.592;2023-06-26T05:20:41;24.80;95.20
51996;DHT22;38010;53.264;6.592;2023-06-26T05:23:07;24.80;95.20
51996;DHT22;38010;53.264;6.592;2023-06-26T05:25:33;24.80;95.30
51996;DHT22;38010;53.264;6.592;2023-06-26T05:28:01;24.80;95.30
51996;DHT22;38010;53.264;6.592;2023-06-26T05:30:28;24.90;95.90
51996;DHT22;38010;53.264;6.592;2023-06-26T05:32:54;24.90;96.10
51996;DHT22;38010;53.264;6.592;2023-06-26T05:35:20;25.00;96.80
51996;DHT22;38010;53.264;6.592;2023-06-26T05:37:50;25.00;96.60
51996;DHT22;38010;53.264;6.592;2023-06-26T05:40:17;25.00;96.90
51996;DHT22;38010;53.264;6.592;2023-06-26T05:42:43;25.00;96.60
51996;DHT22;38010;53.264;6.592;2023-06-26T05:45:10;25.00;96.70
51996;DHT22;38010;53.264;6.592;2023-06-26T05:47:36;25.00;96.70
51996;DHT22;38010;53.264;6.592;2023-06-26T05:50:02;25.00;96.60
51996;DHT22;38010;53.264;6.592;2023-06-26T05:52:28;24.90;96.50
51996;DHT22;38010;53.264;6.592;2023-06-26T05:54:55;25.00;96.50
51996;DHT22;38010;53.264;6.592;2023-06-26T05:57:24;24.90;96.40
51996;DHT22;38010;53.264;6.592;2023-06-26T05:59:51;25.00;96.40
51996;DHT22;38010;53.264;6.592;2023-06-26T06:02:16;24.90;96.40
51996;DHT22;38010;53.264;6.592;2023-06-26T06:04:42;24.90;96.30
51996;DHT22;38010;53.264;6.592;2023-06-26T06:07:08;24.90;96.30
51996;DHT22;38010;53.264;6.592;2023-06-26T06:09:34;24.90;96.20
51996;DHT22;38010;53.264;6.592;2023-06-26T06:11:59;24.90;96.20
51996;DHT22;38010;53.264;6.592;2023-06-26T06:14:27;24.90;96.20
51996;DHT22;38010;53.264;6.592;2023-06-26T06:16:53;24.90;96.20
51996;DHT22;38010;53.264;6.592;2023-06-26T06:19:19;24.90;96.00
51996;DHT22;38010;53.264;6.592;2023-06-26T06:21:45;24.90;96.00
51996;DHT22;38010;53.264;6.592;2023-06-26T06:24:11;24.90;96.00
51996;DHT22;38010;53.264;6.592;2023-06-26T06:26:36;24.80;96.00
51996;DHT22;38010;53.264;6.592;2023-06-26T06:29:02;24.80;96.00
51996;DHT22;38010;53.264;6.592;2023-06-26T06:31:28;24.80;96.00
51996;DHT22;38010;53.264;6.592;2023-06-26T06:33:56;24.80;96.00
51996;DHT22;38010;53.264;6.592;2023-06-26T06:36:22;24.80;96.00
51996;DHT22;38010;53.264;6.592;2023-06-26T06:38:48;24.80;96.00
51996;DHT22;38010;53.264;6.592;2023-06-26T06:41:14;24.80;95.90
51996;DHT22;38010;53.264;6.592;2023-06-26T06:43:41;24.80;95.90
51996;DHT22;38010;53.264;6.592;2023-06-26T06:46:07;24.80;95.90
51996;DHT22;38010;53.264;6.592;2023-06-26T06:48:33;24.70;95.90
51996;DHT22;38010;53.264;6.592;2023-06-26T06:50:59;24.80;95.90
51996;DHT22;38010;53.264;6.592;2023-06-26T06:53:25;24.80;95.90
51996;DHT22;38010;53.264;6.592;2023-06-26T06:55:50;24.80;95.90
51996;DHT22;38010;53.264;6.592;2023-06-26T06:58:16;24.70;95.90
51996;DHT22;38010;53.264;6.592;2023-06-26T07:00:44;24.70;95.80
51996;DHT22;38010;53.264;6.592;2023-06-26T07:03:10;24.70;95.80
51996;DHT22;38010;53.264;6.592;2023-06-26T07:05:37;24.70;95.80
51996;DHT22;38010;53.264;6.592;2023-06-26T07:08:03;24.70;95.80
51996;DHT22;38010;53.264;6.592;2023-06-26T07:10:29;24.70;95.80
51996;DHT22;38010;53.264;6.592;2023-06-26T07:12:55;24.70;95.70
51996;DHT22;38010;53.264;6.592;2023-06-26T07:15:20;24.70;95.60
51996;DHT22;38010;53.264;6.592;2023-06-26T07:17:46;24.70;95.70
51996;DHT22;38010;53.264;6.592;2023-06-26T07:20:12;24.80;95.80
51996;DHT22;38010;53.264;6.592;2023-06-26T07:22:41;24.80;95.80
51996;DHT22;38010;53.264;6.592;2023-06-26T07:25:08;24.80;95.80
51996;DHT22;38010;53.264;6.592;2023-06-26T07:27:37;24.80;95.70
51996;DHT22;38010;53.264;6.592;2023-06-26T07:30:03;24.90;95.80
51996;DHT22;38010;53.264;6.592;2023-06-26T07:32:29;24.90;95.70
51996;DHT22;38010;53.264;6.592;2023-06-26T07:34:55;24.90;95.70
51996;DHT22;38010;53.264;6.592;2023-06-26T07:37:21;24.90;95.70
51996;DHT22;38010;53.264;6.592;2023-06-26T07:39:48;24.90;95.60
51996;DHT22;38010;53.264;6.592;2023-06-26T07:42:14;24.90;95.60
51996;DHT22;38010;53.264;6.592;2023-06-26T07:44:41;24.90;95.50
51996;DHT22;38010;53.264;6.592;2023-06-26T07:47:07;25.00;95.50
51996;DHT22;38010;53.264;6.592;2023-06-26T07:49:33;25.00;95.40
51996;DHT22;38010;53.264;6.592;2023-06-26T07:51:59;25.00;95.50
51996;DHT22;38010;53.264;6.592;2023-06-26T07:54:24;25.00;95.40
51996;DHT22;38010;53.264;6.592;2023-06-26T07:57:01;24.90;95.40
51996;DHT22;38010;53.264;6.592;2023-06-26T07:59:29;24.90;95.40
51996;DHT22;38010;53.264;6.592;2023-06-26T08:01:56;24.90;95.40
51996;DHT22;38010;53.264;6.592;2023-06-26T08:04:23;24.90;95.30
51996;DHT22;38010;53.264;6.592;2023-06-26T08:06:51;24.90;95.30
51996;DHT22;38010;53.264;6.592;2023-06-26T08:09:18;24.90;95.20
51996;DHT22;38010;53.264;6.592;2023-06-26T08:11:44;24.90;95.20
51996;DHT22;38010;53.264;6.592;2023-06-26T08:14:10;24.80;95.10
51996;DHT22;38010;53.264;6.592;2023-06-26T08:16:38;24.80;95.10
51996;DHT22;38010;53.264;6.592;2023-06-26T08:19:04;24.80;95.10
51996;DHT22;38010;53.264;6.592;2023-06-26T08:21:30;24.80;95.10
51996;DHT22;38010;53.264;6.592;2023-06-26T08:23:56;24.80;95.10
51996;DHT22;38010;53.264;6.592;2023-06-26T08:26:22;24.80;95.10
51996;DHT22;38010;53.264;6.592;2023-06-26T08:28:47;24.80;95.10
51996;DHT22;38010;53.264;6.592;2023-06-26T08:31:13;24.70;95.10
51996;DHT22;38010;53.264;6.592;2023-06-26T08:33:39;24.70;95.00
51996;DHT22;38010;53.264;6.592;2023-06-26T08:36:05;24.70;95.00
51996;DHT22;38010;53.264;6.592;2023-06-26T08:38:31;24.70;95.00
51996;DHT22;38010;53.264;6.592;2023-06-26T08:40:57;24.70;94.90
51996;DHT22;38010;53.264;6.592;2023-06-26T08:43:22;24.70;94.90
51996;DHT22;38010;53.264;6.592;2023-06-26T08:45:48;24.80;95.00
51996;DHT22;38010;53.264;6.592;2023-06-26T08:48:18;24.80;95.00
51996;DHT22;38010;53.264;6.592;2023-06-26T08:50:44;24.80;95.00
51996;DHT22;38010;53.264;6.592;2023-06-26T08:53:36;24.70;95.00
51996;DHT22;38010;53.264;6.592;2023-06-26T08:56:03;24.80;95.10
51996;DHT22;38010;53.264;6.592;2023-06-26T08:58:30;24.70;94.70
51996;DHT22;38010;53.264;6.592;2023-06-26T09:00:56;24.80;94.90
51996;DHT22;38010;53.264;6.592;2023-06-26T09:03:23;24.80;95.00
51996;DHT22;38010;53.264;6.592;2023-06-26T09:05:50;24.80;94.90
51996;DHT22;38010;53.264;6.592;2023-06-26T09:08:16;24.80;94.70
51996;DHT22;38010;53.264;6.592;2023-06-26T09:10:42;24.80;94.80
51996;DHT22;38010;53.264;6.592;2023-06-26T09:13:08;24.70;94.80
51996;DHT22;38010;53.264;6.592;2023-06-26T09:15:43;24.80;94.80
51996;DHT22;38010;53.264;6.592;2023-06-26T09:18:09;24.80;94.70
51996;DHT22;38010;53.264;6.592;2023-06-26T09:20:35;24.80;94.40
51996;DHT22;38010;53.264;6.592;2023-06-26T09:23:01;24.80;94.60
51996;DHT22;38010;53.264;6.592;2023-06-26T09:25:28;24.80;94.60
51996;DHT22;38010;53.264;6.592;2023-06-26T09:27:55;24.80;94.50
51996;DHT22;38010;53.264;6.592;2023-06-26T09:30:21;24.70;94.60
51996;DHT22;38010;53.264;6.592;2023-06-26T09:32:47;24.70;94.60
51996;DHT22;38010;53.264;6.592;2023-06-26T09:35:12;24.70;94.40
51996;DHT22;38010;53.264;6.592;2023-06-26T09:37:39;24.70;94.30
51996;DHT22;38010;53.264;6.592;2023-06-26T09:40:05;24.70;94.30
51996;DHT22;38010;53.264;6.592;2023-06-26T09:42:31;24.80;94.30
51996;DHT22;38010;53.264;6.592;2023-06-26T09:44:57;24.80;94.30
51996;DHT22;38010;53.264;6.592;2023-06-26T09:47:23;24.70;94.50
51996;DHT22;38010;53.264;6.592;2023-06-26T09:49:49;24.70;94.60
51996;DHT22;38010;53.264;6.592;2023-06-26T09:52:16;24.70;94.50
51996;DHT22;38010;53.264;6.592;2023-06-26T09:54:43;24.80;94.50
51996;DHT22;38010;53.264;6.592;2023-06-26T09:57:13;24.80;94.20
51996;DHT22;38010;53.264;6.592;2023-06-26T09:59:39;24.90;94.10
51996;DHT22;38010;53.264;6.592;2023-06-26T10:02:05;24.90;94.40
51996;DHT22;38010;53.264;6.592;2023-06-26T10:04:32;24.80;94.30
51996;DHT22;38010;53.264;6.592;2023-06-26T10:07:01;24.80;94.40
51996;DHT22;38010;53.264;6.592;2023-06-26T10:09:27;24.80;94.30
51996;DHT22;38010;53.264;6.592;2023-06-26T10:12:06;24.80;94.20
51996;DHT22;38010;53.264;6.592;2023-06-26T10:14:37;24.80;94.20
51996;DHT22;38010;53.264;6.592;2023-06-26T10:17:07;24.80;94.20
51996;DHT22;38010;53.264;6.592;2023-06-26T10:19:35;24.80;94.10
51996;DHT22;38010;53.264;6.592;2023-06-26T10:22:02;24.80;94.00
51996;DHT22;38010;53.264;6.592;2023-06-26T10:24:33;24.80;94.00
51996;DHT22;38010;53.264;6.592;2023-06-26T10:27:06;24.80;93.90
51996;DHT22;38010;53.264;6.592;2023-06-26T10:29:35;24.80;93.90
51996;DHT22;38010;53.264;6.592;2023-06-26T10:32:02;24.80;94.00
51996;DHT22;38010;53.264;6.592;2023-06-26T10:34:29;24.80;93.90
51996;DHT22;38010;53.264;6.592;2023-06-26T10:37:04;24.80;93.80
51996;DHT22;38010;53.264;6.592;2023-06-26T10:39:51;24.80;93.60
51996;DHT22;38010;53.264;6.592;2023-06-26T10:42:33;24.80;94.00
51996;DHT22;38010;53.264;6.592;2023-06-26T10:45:09;24.70;93.60
51996;DHT22;38010;53.264;6.592;2023-06-26T10:47:36;24.80;93.50
51996;DHT22;38010;53.264;6.592;2023-06-26T10:50:24;24.80;93.30
51996;DHT22;38010;53.264;6.592;2023-06-26T10:55:42;24.80;93.20
51996;DHT22;38010;53.264;6.592;2023-06-26T11:03:37;24.80;93.00
51996;DHT22;38010;53.264;6.592;2023-06-26T11:06:14;24.80;92.90
51996;DHT22;38010;53.264;6.592;2023-06-26T11:08:51;24.80;93.20
51996;DHT22;38010;53.264;6.592;2023-06-26T11:11:19;24.80;92.90
51996;DHT22;38010;53.264;6.592;2023-06-26T11:13:46;24.80;92.90
51996;DHT22;38010;53.264;6.592;2023-06-26T11:16:13;24.80;92.80
51996;DHT22;38010;53.264;6.592;2023-06-26T11:18:42;24.80;92.70
51996;DHT22;38010;53.264;6.592;2023-06-26T11:21:11;24.80;92.70
51996;DHT22;38010;53.264;6.592;2023-06-26T11:23:40;24.80;92.60
51996;DHT22;38010;53.264;6.592;2023-06-26T11:26:17;24.80;92.70
51996;DHT22;38010;53.264;6.592;2023-06-26T11:31:31;24.80;92.60
51996;DHT22;38010;53.264;6.592;2023-06-26T11:34:04;24.80;92.20
51996;DHT22;38010;53.264;6.592;2023-06-26T11:36:31;24.80;92.50
51996;DHT22;38010;53.264;6.592;2023-06-26T11:39:01;24.80;92.30
51996;DHT22;38010;53.264;6.592;2023-06-26T11:41:30;24.80;92.30
51996;DHT22;38010;53.264;6.592;2023-06-26T11:44:09;24.80;92.40
51996;DHT22;38010;53.264;6.592;2023-06-26T11:46:36;24.80;92.20
51996;DHT22;38010;53.264;6.592;2023-06-26T11:49:06;24.80;92.10
51996;DHT22;38010;53.264;6.592;2023-06-26T11:51:32;24.80;92.10
51996;DHT22;38010;53.264;6.592;2023-06-26T11:54:01;24.80;92.10
51996;DHT22;38010;53.264;6.592;2023-06-26T11:56:28;24.80;92.10
51996;DHT22;38010;53.264;6.592;2023-06-26T12:04:02;24.80;92.00
51996;DHT22;38010;53.264;6.592;2023-06-26T12:06:34;24.80;92.10
51996;DHT22;38010;53.264;6.592;2023-06-26T12:09:08;24.80;92.00
51996;DHT22;38010;53.264;6.592;2023-06-26T12:11:37;24.90;91.90
51996;DHT22;38010;53.264;6.592;2023-06-26T12:14:05;24.90;92.00
51996;DHT22;38010;53.264;6.592;2023-06-26T12:16:33;24.90;92.00
51996;DHT22;38010;53.264;6.592;2023-06-26T12:19:00;24.90;91.90
51996;DHT22;38010;53.264;6.592;2023-06-26T12:24:15;24.90;91.70
51996;DHT22;38010;53.264;6.592;2023-06-26T12:26:46;24.90;91.90
51996;DHT22;38010;53.264;6.592;2023-06-26T12:29:14;24.90;91.60
51996;DHT22;38010;53.264;6.592;2023-06-26T12:31:45;24.90;91.70
51996;DHT22;38010;53.264;6.592;2023-06-26T12:34:15;25.00;91.40
51996;DHT22;38010;53.264;6.592;2023-06-26T12:36:50;25.00;91.60
51996;DHT22;38010;53.264;6.592;2023-06-26T12:39:18;25.00;91.70
51996;DHT22;38010;53.264;6.592;2023-06-26T12:42:02;25.00;91.60
51996;DHT22;38010;53.264;6.592;2023-06-26T12:44:30;25.00;91.60
51996;DHT22;38010;53.264;6.592;2023-06-26T12:46:58;25.00;91.60
51996;DHT22;38010;53.264;6.592;2023-06-26T12:49:37;25.00;91.60
51996;DHT22;38010;53.264;6.592;2023-06-26T12:52:13;25.00;91.30
51996;DHT22;38010;53.264;6.592;2023-06-26T12:54:41;25.00;91.30
51996;DHT22;38010;53.264;6.592;2023-06-26T12:57:08;25.00;91.30
51996;DHT22;38010;53.264;6.592;2023-06-26T12:59:36;25.10;91.50
51996;DHT22;38010;53.264;6.592;2023-06-26T13:02:02;25.10;91.00
51996;DHT22;38010;53.264;6.592;2023-06-26T13:04:29;25.10;91.20
51996;DHT22;38010;53.264;6.592;2023-06-26T13:06:55;25.10;91.10
51996;DHT22;38010;53.264;6.592;2023-06-26T13:09:22;25.10;91.10
51996;DHT22;38010;53.264;6.592;2023-06-26T13:11:49;25.10;91.10
51996;DHT22;38010;53.264;6.592;2023-06-26T13:14:15;25.10;90.90
51996;DHT22;38010;53.264;6.592;2023-06-26T13:16:41;25.10;91.00
51996;DHT22;38010;53.264;6.592;2023-06-26T13:19:07;25.10;91.00
51996;DHT22;38010;53.264;6.592;2023-06-26T13:21:33;25.10;91.00
51996;DHT22;38010;53.264;6.592;2023-06-26T13:24:00;25.10;91.20
51996;DHT22;38010;53.264;6.592;2023-06-26T13:26:26;25.10;91.00
51996;DHT22;38010;53.264;6.592;2023-06-26T13:28:53;25.10;91.40
51996;DHT22;38010;53.264;6.592;2023-06-26T13:31:19;25.20;91.30
51996;DHT22;38010;53.264;6.592;2023-06-26T13:33:45;25.20;91.50
51996;DHT22;38010;53.264;6.592;2023-06-26T13:36:15;25.20;91.30
51996;DHT22;38010;53.264;6.592;2023-06-26T13:38:41;25.20;91.10
51996;DHT22;38010;53.264;6.592;2023-06-26T13:41:06;25.30;91.40
51996;DHT22;38010;53.264;6.592;2023-06-26T13:43:32;25.30;91.20
51996;DHT22;38010;53.264;6.592;2023-06-26T13:45:58;25.20;91.20
51996;DHT22;38010;53.264;6.592;2023-06-26T13:48:24;25.20;91.70
51996;DHT22;38010;53.264;6.592;2023-06-26T13:50:50;25.20;91.40
51996;DHT22;38010;53.264;6.592;2023-06-26T13:53:16;25.30;91.40
51996;DHT22;38010;53.264;6.592;2023-06-26T13:55:42;25.30;91.40
51996;DHT22;38010;53.264;6.592;2023-06-26T13:58:09;25.30;91.30
51996;DHT22;38010;53.264;6.592;2023-06-26T14:00:36;25.30;91.30
51996;DHT22;38010;53.264;6.592;2023-06-26T14:03:05;25.30;91.20
51996;DHT22;38010;53.264;6.592;2023-06-26T14:05:35;25.30;91.20
51996;DHT22;38010;53.264;6.592;2023-06-26T14:08:03;25.30;91.20
51996;DHT22;38010;53.264;6.592;2023-06-26T14:10:30;25.30;91.40
51996;DHT22;38010;53.264;6.592;2023-06-26T14:12:56;25.30;91.40
51996;DHT22;38010;53.264;6.592;2023-06-26T14:15:22;25.40;91.70
51996;DHT22;38010;53.264;6.592;2023-06-26T14:17:48;25.60;91.70
51996;DHT22;38010;53.264;6.592;2023-06-26T14:20:16;26.30;91.40
51996;DHT22;38010;53.264;6.592;2023-06-26T14:22:43;26.80;91.30
51996;DHT22;38010;53.264;6.592;2023-06-26T14:25:10;27.60;90.60
51996;DHT22;38010;53.264;6.592;2023-06-26T14:57:06;29.50;82.30
51996;DHT22;38010;53.264;6.592;2023-06-26T14:59:31;29.20;83.10
51996;DHT22;38010;53.264;6.592;2023-06-26T15:01:57;28.60;83.60
51996;DHT22;38010;53.264;6.592;2023-06-26T15:04:23;28.30;84.40
51996;DHT22;38010;53.264;6.592;2023-06-26T15:06:49;27.80;84.70
51996;DHT22;38010;53.264;6.592;2023-06-26T15:09:14;27.60;85.30
51996;DHT22;38010;53.264;6.592;2023-06-26T15:11:40;27.30;85.60
51996;DHT22;38010;53.264;6.592;2023-06-26T15:14:06;27.10;86.10
51996;DHT22;38010;53.264;6.592;2023-06-26T15:16:32;26.90;86.70
51996;DHT22;38010;53.264;6.592;2023-06-26T15:18:57;26.70;87.90
51996;DHT22;38010;53.264;6.592;2023-06-26T15:21:24;26.60;87.40
51996;DHT22;38010;53.264;6.592;2023-06-26T15:23:50;26.30;88.10
51996;DHT22;38010;53.264;6.592;2023-06-26T15:26:16;26.30;88.40
51996;DHT22;38010;53.264;6.592;2023-06-26T15:28:42;26.20;88.40
51996;DHT22;38010;53.264;6.592;2023-06-26T15:31:08;26.10;89.60
51996;DHT22;38010;53.264;6.592;2023-06-26T15:33:33;26.00;89.80
51996;DHT22;38010;53.264;6.592;2023-06-26T15:36:00;26.00;90.20
51996;DHT22;38010;53.264;6.592;2023-06-26T15:38:28;25.90;90.10
51996;DHT22;38010;53.264;6.592;2023-06-26T15:40:54;25.80;90.50
51996;DHT22;38010;53.264;6.592;2023-06-26T15:43:20;25.80;90.70
51996;DHT22;38010;53.264;6.592;2023-06-26T15:45:46;25.70;90.80
51996;DHT22;38010;53.264;6.592;2023-06-26T15:48:11;25.70;91.00
51996;DHT22;38010;53.264;6.592;2023-06-26T15:50:37;25.70;90.80
51996;DHT22;38010;53.264;6.592;2023-06-26T15:53:04;25.60;90.90
51996;DHT22;38010;53.264;6.592;2023-06-26T15:55:30;25.60;91.00
51996;DHT22;38010;53.264;6.592;2023-06-26T15:57:56;25.60;90.90
51996;DHT22;38010;53.264;6.592;2023-06-26T16:00:22;25.60;90.80
51996;DHT22;38010;53.264;6.592;2023-06-26T16:02:47;25.60;90.80
51996;DHT22;38010;53.264;6.592;2023-06-26T16:05:14;25.60;90.90
51996;DHT22;38010;53.264;6.592;2023-06-26T16:07:40;25.60;91.10
51996;DHT22;38010;53.264;6.592;2023-06-26T16:10:06;25.60;91.20
51996;DHT22;38010;53.264;6.592;2023-06-26T16:12:32;25.60;91.30
51996;DHT22;38010;53.264;6.592;2023-06-26T16:14:58;25.60;91.40
51996;DHT22;38010;53.264;6.592;2023-06-26T16:17:24;25.50;91.30
51996;DHT22;38010;53.264;6.592;2023-06-26T16:19:50;25.50;90.40
51996;DHT22;38010;53.264;6.592;2023-06-26T16:22:15;25.40;89.60
51996;DHT22;38010;53.264;6.592;2023-06-26T16:24:41;25.40;87.30
51996;DHT22;38010;53.264;6.592;2023-06-26T16:27:07;25.20;85.10